createdAt,value
2018-05-31T00:01:00.163Z,101607.85
2018-05-31T00:03:28.229Z,101607.83
2018-05-31T00:05:56.566Z,101612.89
2018-05-31T00:08:24.758Z,101616.16
2018-05-31T00:10:53.161Z,101619.45
2018-05-31T00:13:20.766Z,101618.05
2018-05-31T00:15:49.004Z,101616.81
2018-05-31T00:18:16.631Z,101619.87
2018-05-31T00:20:44.237Z,101613.30
2018-05-31T00:23:12.292Z,101614.75
2018-05-31T00:25:40.415Z,101611.91
2018-05-31T00:28:08.764Z,101619.96
2018-05-31T00:30:36.376Z,101614.58
2018-05-31T00:33:04.730Z,101622.23
2018-05-31T00:35:32.759Z,101637.44
2018-05-31T00:38:00.459Z,101636.98
2018-05-31T00:40:28.127Z,101641.89
2018-05-31T00:42:56.448Z,101643.34
2018-05-31T00:45:24.067Z,101647.02
2018-05-31T00:47:53.209Z,101643.69
2018-05-31T00:50:20.808Z,101644.68
2018-05-31T00:52:48.395Z,101646.54
2018-05-31T00:55:16.241Z,101648.23
2018-05-31T00:57:43.852Z,101648.89
2018-05-31T01:00:11.461Z,101647.16
2018-05-31T01:02:39.046Z,101656.23
2018-05-31T01:05:07.464Z,101655.05
2018-05-31T01:07:35.024Z,101649.90
2018-05-31T01:10:02.872Z,101652.19
2018-05-31T01:12:30.444Z,101646.34
2018-05-31T01:14:58.413Z,101654.23
2018-05-31T01:17:25.972Z,101652.31
2018-05-31T01:19:54.292Z,101652.55
2018-05-31T01:22:21.890Z,101652.22
2018-05-31T01:24:49.799Z,101655.73
2018-05-31T01:27:17.937Z,101648.32
2018-05-31T01:29:46.661Z,101648.40
2018-05-31T01:32:14.254Z,101637.63
2018-05-31T01:34:41.827Z,101634.58
2018-05-31T01:37:09.821Z,101635.16
2018-05-31T01:39:37.371Z,101637.75
2018-05-31T01:42:05.488Z,101642.49
2018-05-31T01:44:33.756Z,101647.02
2018-05-31T01:47:01.316Z,101646.84
2018-05-31T01:49:28.875Z,101648.50
2018-05-31T01:51:56.467Z,101645.25
2018-05-31T01:54:24.108Z,101646.08
2018-05-31T01:56:51.807Z,101649.60
2018-05-31T01:59:19.464Z,101647.66
2018-05-31T02:01:47.313Z,101653.87
2018-05-31T02:04:14.887Z,101660.91
2018-05-31T02:06:42.975Z,101660.58
2018-05-31T02:09:11.309Z,101667.80
2018-05-31T02:11:38.856Z,101667.15
2018-05-31T02:14:06.452Z,101667.03
2018-05-31T02:16:34.531Z,101670.64
2018-05-31T02:19:02.845Z,101669.25
2018-05-31T02:21:30.403Z,101674.80
2018-05-31T02:23:59.003Z,101671.03
2018-05-31T02:26:27.234Z,101666.36
2018-05-31T02:28:56.310Z,101664.17
2018-05-31T02:31:23.872Z,101663.55
2018-05-31T02:33:51.440Z,101670.68
2018-05-31T02:36:20.062Z,101671.06
2018-05-31T02:38:47.751Z,101678.32
2018-05-31T02:41:15.407Z,101679.53
2018-05-31T02:43:43.428Z,101675.42
2018-05-31T02:46:11.020Z,101671.22
2018-05-31T02:48:39.320Z,101671.45
2018-05-31T02:51:06.880Z,101673.03
2018-05-31T02:53:34.543Z,101680.14
2018-05-31T02:56:02.155Z,101684.44
2018-05-31T02:58:29.774Z,101676.61
2018-05-31T03:00:57.469Z,101672.98
2018-05-31T03:03:25.320Z,101676.89
2018-05-31T03:05:54.030Z,101680.16
2018-05-31T03:08:21.624Z,101679.66
2018-05-31T03:10:49.737Z,101676.67
2018-05-31T03:13:17.456Z,101673.75
2018-05-31T03:15:45.439Z,101677.87
2018-05-31T03:18:13.036Z,101676.80
2018-05-31T03:20:40.603Z,101675.58
2018-05-31T03:23:08.964Z,101671.50
2018-05-31T03:25:37.193Z,101676.86
2018-05-31T03:28:05.625Z,101670.39
2018-05-31T03:30:33.207Z,101682.20
2018-05-31T03:33:00.778Z,101669.96
2018-05-31T03:35:28.734Z,101672.31
2018-05-31T03:37:56.283Z,101674.41
2018-05-31T03:40:24.065Z,101666.83
2018-05-31T03:42:52.932Z,101668.66
2018-05-31T03:45:20.564Z,101675.98
2018-05-31T03:47:48.142Z,101673.14
2018-05-31T03:50:15.793Z,101671.23
2018-05-31T03:52:43.432Z,101666.69
2018-05-31T03:55:11.001Z,101660.42
2018-05-31T03:57:38.608Z,101663.64
2018-05-31T04:00:06.225Z,101658.27
2018-05-31T04:02:33.800Z,101665.61
2018-05-31T04:05:02.295Z,101657.52
2018-05-31T04:07:30.377Z,101662.84
2018-05-31T04:09:58.562Z,101666.66
2018-05-31T04:12:26.926Z,101670.31
2018-05-31T04:14:55.344Z,101678.75
2018-05-31T04:17:23.011Z,101682.70
2018-05-31T04:19:50.622Z,101675.42
2018-05-31T04:22:18.184Z,101677.55
2018-05-31T04:24:46.689Z,101681.73
2018-05-31T04:27:14.862Z,101688.91
2018-05-31T04:29:42.991Z,101687.79
2018-05-31T04:32:10.560Z,101686.09
2018-05-31T04:34:38.156Z,101684.05
2018-05-31T04:37:06.387Z,101687.42
2018-05-31T04:39:33.973Z,101695.23
2018-05-31T04:42:01.780Z,101699.73
2018-05-31T04:44:30.326Z,101693.73
2018-05-31T04:46:58.206Z,101694.87
2018-05-31T04:49:25.927Z,101692.06
2018-05-31T04:51:53.716Z,101693.89
2018-05-31T04:54:21.271Z,101687.87
2018-05-31T04:56:49.628Z,101684.45
2018-05-31T04:59:18.140Z,101684.36
2018-05-31T05:01:46.928Z,101678.16
2018-05-31T05:04:14.536Z,101680.04
2018-05-31T05:06:43.116Z,101676.48
2018-05-31T05:09:11.665Z,101680.78
2018-05-31T05:11:39.975Z,101683.41
2018-05-31T05:14:07.689Z,101680.86
2018-05-31T05:16:35.995Z,101686.50
2018-05-31T05:19:03.565Z,101687.98
2018-05-31T05:21:31.196Z,101686.81
2018-05-31T05:23:59.975Z,101693.92
2018-05-31T05:26:28.129Z,101684.50
2018-05-31T05:28:56.377Z,101689.29
2018-05-31T05:31:24.084Z,101689.77
2018-05-31T05:33:51.750Z,101681.98
2018-05-31T05:36:20.103Z,101680.77
2018-05-31T05:38:47.913Z,101683.89
2018-05-31T05:41:15.703Z,101676.53
2018-05-31T05:43:43.932Z,101680.25
2018-05-31T05:46:11.699Z,101684.97
2018-05-31T05:48:39.285Z,101685.36
2018-05-31T05:51:06.922Z,101682.25
2018-05-31T05:53:34.527Z,101685.94
2018-05-31T05:56:02.193Z,101679.34
2018-05-31T05:58:29.784Z,101683.94
2018-05-31T06:00:57.503Z,101694.62
2018-05-31T06:03:25.130Z,101687.64
2018-05-31T06:05:53.467Z,101693.48
2018-05-31T06:08:22.046Z,101692.22
2018-05-31T06:10:50.176Z,101686.93
2018-05-31T06:13:17.918Z,101688.27
2018-05-31T06:15:46.169Z,101689.26
2018-05-31T06:18:13.735Z,101703.37
2018-05-31T06:20:41.324Z,101700.32
2018-05-31T06:23:09.746Z,101705.80
2018-05-31T06:25:38.195Z,101701.09
2018-05-31T06:28:06.639Z,101701.77
2018-05-31T06:30:34.208Z,101704.44
2018-05-31T06:33:01.799Z,101716.08
2018-05-31T06:35:29.954Z,101708.53
2018-05-31T06:37:57.528Z,101711.38
2018-05-31T06:40:25.133Z,101708.11
2018-05-31T06:42:52.884Z,101710.38
2018-05-31T06:45:20.480Z,101710.19
2018-05-31T06:47:48.137Z,101710.86
2018-05-31T06:50:15.970Z,101711.27
2018-05-31T06:52:43.506Z,101709.20
2018-05-31T06:55:11.072Z,101706.64
2018-05-31T06:57:38.689Z,101707.22
2018-05-31T07:00:06.490Z,101708.66
2018-05-31T07:02:34.071Z,101711.83
2018-05-31T07:05:02.729Z,101709.86
2018-05-31T07:07:30.966Z,101711.75
2018-05-31T07:09:59.279Z,101714.16
2018-05-31T07:12:26.860Z,101713.44
2018-05-31T07:14:55.363Z,101720.58
2018-05-31T07:17:23.076Z,101714.27
2018-05-31T07:19:50.643Z,101720.65
2018-05-31T07:22:18.246Z,101716.12
2018-05-31T07:24:47.164Z,101718.95
2018-05-31T07:27:15.660Z,101713.20
2018-05-31T07:29:43.619Z,101721.39
2018-05-31T07:32:11.167Z,101712.63
2018-05-31T07:34:38.712Z,101714.97
2018-05-31T07:37:06.812Z,101720.06
2018-05-31T07:39:34.354Z,101721.17
2018-05-31T07:42:01.913Z,101723.84
2018-05-31T07:44:29.484Z,101726.05
2018-05-31T07:46:57.079Z,101731.91
2018-05-31T07:49:24.694Z,101727.20
2018-05-31T07:51:52.338Z,101726.56
2018-05-31T07:54:19.957Z,101722.78
2018-05-31T07:56:47.839Z,101728.03
2018-05-31T07:59:15.544Z,101721.88
2018-05-31T08:01:43.468Z,101726.14
2018-05-31T08:04:11.992Z,101720.91
2018-05-31T08:06:40.412Z,101718.94
2018-05-31T08:09:08.027Z,101713.19
2018-05-31T08:11:36.323Z,101715.20
2018-05-31T08:14:03.917Z,101721.39
2018-05-31T08:16:32.163Z,101716.78
2018-05-31T08:18:59.724Z,101718.27
2018-05-31T08:21:27.279Z,101717.43
2018-05-31T08:23:55.558Z,101717.78
2018-05-31T08:26:24.073Z,101718.39
2018-05-31T08:28:52.485Z,101719.80
2018-05-31T08:31:20.125Z,101718.52
2018-05-31T08:33:47.896Z,101713.12
2018-05-31T08:36:16.409Z,101711.56
2018-05-31T08:38:44.004Z,101716.31
2018-05-31T08:41:11.608Z,101711.11
2018-05-31T08:43:39.190Z,101717.38
2018-05-31T08:46:06.741Z,101716.86
2018-05-31T08:48:34.303Z,101705.41
2018-05-31T08:51:01.932Z,101703.93
2018-05-31T08:53:30.398Z,101705.14
2018-05-31T08:55:57.958Z,101717.03
2018-05-31T08:58:25.560Z,101704.34
2018-05-31T09:00:54.150Z,101706.75
2018-05-31T09:03:21.709Z,101712.48
2018-05-31T09:05:50.168Z,101707.75
2018-05-31T09:08:17.788Z,101692.48
2018-05-31T09:10:46.642Z,101704.27
2018-05-31T09:13:14.209Z,101700.08
2018-05-31T09:15:45.465Z,101693.05
2018-05-31T09:18:13.104Z,101694.78
2018-05-31T09:20:40.882Z,101690.27
2018-05-31T09:23:09.144Z,101682.77
2018-05-31T09:25:37.847Z,101693.34
2018-05-31T09:28:06.288Z,101686.47
2018-05-31T09:30:33.882Z,101676.58
2018-05-31T09:33:01.455Z,101680.14
2018-05-31T09:35:30.495Z,101683.61
2018-05-31T09:37:58.103Z,101674.98
2018-05-31T09:40:25.652Z,101681.18
2018-05-31T09:42:53.465Z,101683.41
2018-05-31T09:45:21.023Z,101680.69
2018-05-31T09:47:48.621Z,101678.66
2018-05-31T09:50:16.373Z,101680.56
2018-05-31T09:52:44.321Z,101680.69
2018-05-31T09:55:11.887Z,101685.31
2018-05-31T09:57:39.506Z,101674.55
2018-05-31T10:00:07.986Z,101671.53
2018-05-31T10:02:35.557Z,101680.27
2018-05-31T10:05:03.904Z,101676.38
2018-05-31T10:07:31.974Z,101670.86
2018-05-31T10:10:00.309Z,101670.40
2018-05-31T10:12:27.876Z,101673.91
2018-05-31T10:14:55.923Z,101669.22
2018-05-31T10:17:23.591Z,101662.00
2018-05-31T10:19:51.184Z,101654.59
2018-05-31T10:22:18.786Z,101664.10
2018-05-31T10:24:47.405Z,101647.61
2018-05-31T10:27:15.940Z,101652.85
2018-05-31T10:29:44.219Z,101643.26
2018-05-31T10:32:11.757Z,101645.01
2018-05-31T10:34:39.338Z,101643.80
2018-05-31T10:37:07.565Z,101646.53
2018-05-31T10:39:35.124Z,101639.88
2018-05-31T10:42:02.695Z,101641.21
2018-05-31T10:44:30.285Z,101633.68
2018-05-31T10:46:57.844Z,101657.78
2018-05-31T10:49:25.410Z,101645.45
2018-05-31T10:51:53.368Z,101635.27
2018-05-31T10:54:20.927Z,101630.45
2018-05-31T10:56:49.215Z,101635.05
2018-05-31T10:59:16.853Z,101633.94
2018-05-31T11:01:44.412Z,101637.19
2018-05-31T11:04:12.019Z,101639.16
2018-05-31T11:06:40.467Z,101624.20
2018-05-31T11:09:08.066Z,101613.42
2018-05-31T11:11:36.586Z,101623.69
2018-05-31T11:14:04.176Z,101634.38
2018-05-31T11:16:32.359Z,101627.66
2018-05-31T11:18:59.931Z,101620.59
2018-05-31T11:21:27.487Z,101627.58
2018-05-31T11:23:55.692Z,101624.26
2018-05-31T11:26:24.834Z,101621.97
2018-05-31T11:28:53.309Z,101615.67
2018-05-31T11:31:20.881Z,101621.64
2018-05-31T11:33:48.443Z,101613.30
2018-05-31T11:36:16.750Z,101613.16
2018-05-31T11:38:44.353Z,101621.70
2018-05-31T11:41:11.904Z,101627.36
2018-05-31T11:43:40.250Z,101620.05
2018-05-31T11:46:07.842Z,101626.36
2018-05-31T11:48:35.416Z,101630.16
2018-05-31T11:51:02.995Z,101625.52
2018-05-31T11:53:31.069Z,101632.30
2018-05-31T11:55:58.610Z,101631.14
2018-05-31T11:58:26.401Z,101633.47
2018-05-31T12:00:54.079Z,101627.31
2018-05-31T12:03:21.665Z,101618.53
2018-05-31T12:05:50.092Z,101621.42
2018-05-31T12:08:17.914Z,101624.77
2018-05-31T12:10:46.473Z,101626.31
2018-05-31T12:13:14.032Z,101623.30
2018-05-31T12:15:42.367Z,101616.34
2018-05-31T12:18:09.920Z,101621.91
2018-05-31T12:20:37.471Z,101620.80
2018-05-31T12:23:05.909Z,101625.05
2018-05-31T12:25:34.115Z,101616.56
2018-05-31T12:28:02.557Z,101616.08
2018-05-31T12:30:30.117Z,101618.53
2018-05-31T12:32:57.681Z,101610.20
2018-05-31T12:35:25.262Z,101624.03
2018-05-31T12:37:53.055Z,101616.63
2018-05-31T12:40:21.395Z,101620.04
2018-05-31T12:42:49.002Z,101625.34
2018-05-31T12:45:16.766Z,101615.63
2018-05-31T12:47:44.342Z,101618.16
2018-05-31T12:50:11.914Z,101623.94
2018-05-31T12:52:40.128Z,101619.32
2018-05-31T12:55:07.845Z,101616.17
2018-05-31T12:57:35.412Z,101617.15
2018-05-31T13:00:03.432Z,101607.43
2018-05-31T13:02:30.967Z,101610.05
2018-05-31T13:04:59.368Z,101615.75
2018-05-31T13:07:27.764Z,101611.09
2018-05-31T13:09:55.750Z,101600.30
2018-05-31T13:12:23.564Z,101597.41
2018-05-31T13:14:51.954Z,101594.66
2018-05-31T13:17:19.513Z,101590.00
2018-05-31T13:19:47.151Z,101587.23
2018-05-31T13:22:14.776Z,101586.22
2018-05-31T13:24:43.243Z,101592.59
2018-05-31T13:27:11.424Z,101594.34
2018-05-31T13:29:39.683Z,101590.09
2018-05-31T13:32:07.381Z,101589.02
2018-05-31T13:34:34.963Z,101588.92
2018-05-31T13:37:02.669Z,101592.47
2018-05-31T13:39:30.925Z,101595.20
2018-05-31T13:41:58.512Z,101586.73
2018-05-31T13:44:26.050Z,101593.84
2018-05-31T13:46:53.829Z,101587.06
2018-05-31T13:49:22.028Z,101585.76
2018-05-31T13:51:50.182Z,101581.66
2018-05-31T13:54:18.267Z,101591.77
2018-05-31T13:56:45.850Z,101587.83
2018-05-31T13:59:13.455Z,101597.26
2018-05-31T14:01:41.008Z,101592.73
2018-05-31T14:04:08.572Z,101598.52
2018-05-31T14:06:36.738Z,101588.65
2018-05-31T14:09:06.249Z,101585.76
2018-05-31T14:11:34.318Z,101584.45
2018-05-31T14:14:01.905Z,101585.87
2018-05-31T14:16:30.108Z,101586.52
2018-05-31T14:18:57.747Z,101583.09
2018-05-31T14:21:25.332Z,101582.92
2018-05-31T14:23:54.384Z,101577.69
2018-05-31T14:26:22.567Z,101570.81
2018-05-31T14:28:50.695Z,101572.08
2018-05-31T14:31:18.285Z,101568.11
2018-05-31T14:33:46.174Z,101566.94
2018-05-31T14:36:13.741Z,101559.23
2018-05-31T14:38:41.287Z,101566.02
2018-05-31T14:41:09.359Z,101565.94
2018-05-31T14:43:36.934Z,101565.63
2018-05-31T14:46:05.603Z,101563.55
2018-05-31T14:48:33.139Z,101561.02
2018-05-31T14:51:00.704Z,101556.09
2018-05-31T14:53:28.805Z,101556.71
2018-05-31T14:55:56.412Z,101559.70
2018-05-31T14:58:24.016Z,101558.48
2018-05-31T15:00:51.592Z,101558.36
2018-05-31T15:03:19.170Z,101559.03
2018-05-31T15:05:48.130Z,101565.05
2018-05-31T15:08:16.700Z,101560.55
2018-05-31T15:10:44.683Z,101551.16
2018-05-31T15:13:12.268Z,101551.64
2018-05-31T15:15:40.226Z,101554.58
2018-05-31T15:18:07.787Z,101552.88
2018-05-31T15:20:35.359Z,101552.05
2018-05-31T15:23:03.566Z,101542.16
2018-05-31T15:25:31.120Z,101550.30
2018-05-31T15:28:00.395Z,101550.36
2018-05-31T15:30:27.958Z,101545.00
2018-05-31T15:32:55.507Z,101549.48
2018-05-31T15:35:23.315Z,101536.13
2018-05-31T15:37:51.216Z,101542.95
2018-05-31T15:40:19.630Z,101541.30
2018-05-31T15:42:47.466Z,101534.27
2018-05-31T15:45:16.667Z,101525.45
2018-05-31T15:47:44.241Z,101529.20
2018-05-31T15:50:11.804Z,101530.88
2018-05-31T15:52:39.831Z,101526.58
2018-05-31T15:55:07.372Z,101516.39
2018-05-31T15:57:35.080Z,101529.08
2018-05-31T16:00:02.770Z,101523.56
2018-05-31T16:02:30.565Z,101522.26
2018-05-31T16:04:58.704Z,101530.55
2018-05-31T16:07:26.963Z,101519.90
2018-05-31T16:09:55.215Z,101527.91
2018-05-31T16:12:22.960Z,101525.67
2018-05-31T16:14:51.185Z,101519.36
2018-05-31T16:17:18.906Z,101514.28
2018-05-31T16:19:47.007Z,101519.27
2018-05-31T16:22:14.581Z,101512.36
2018-05-31T16:24:42.883Z,101515.23
2018-05-31T16:27:10.929Z,101512.34
2018-05-31T16:29:39.054Z,101513.74
2018-05-31T16:32:06.607Z,101518.31
2018-05-31T16:34:34.263Z,101523.34
2018-05-31T16:37:01.824Z,101515.14
2018-05-31T16:39:29.964Z,101512.94
2018-05-31T16:41:57.550Z,101514.48
2018-05-31T16:44:25.152Z,101504.41
2018-05-31T16:46:52.853Z,101505.58
2018-05-31T16:49:20.540Z,101499.22
2018-05-31T16:51:48.811Z,101503.31
2018-05-31T16:54:17.279Z,101506.79
2018-05-31T16:56:44.828Z,101511.39
2018-05-31T16:59:12.467Z,101500.66
2018-05-31T17:01:39.978Z,101499.64
2018-05-31T17:04:07.526Z,101498.11
2018-05-31T17:06:35.896Z,101492.27
2018-05-31T17:09:03.508Z,101493.64
2018-05-31T17:11:31.563Z,101487.08
2018-05-31T17:13:59.776Z,101491.28
2018-05-31T17:16:28.112Z,101483.33
2018-05-31T17:18:55.698Z,101486.00
2018-05-31T17:21:23.443Z,101483.39
2018-05-31T17:23:51.713Z,101480.61
2018-05-31T17:26:19.279Z,101481.30
2018-05-31T17:28:48.534Z,101477.28
2018-05-31T17:31:16.351Z,101474.41
2018-05-31T17:33:43.918Z,101484.64
2018-05-31T17:36:11.492Z,101477.98
2018-05-31T17:38:39.648Z,101475.01
2018-05-31T17:41:07.637Z,101468.47
2018-05-31T17:43:35.188Z,101475.88
2018-05-31T17:46:02.768Z,101477.02
2018-05-31T17:48:30.370Z,101478.80
2018-05-31T17:50:57.948Z,101478.35
2018-05-31T17:53:26.015Z,101475.82
2018-05-31T17:55:54.662Z,101469.09
2018-05-31T17:58:23.878Z,101473.80
2018-05-31T18:00:51.415Z,101472.22
2018-05-31T18:03:19.040Z,101466.06
2018-05-31T18:05:48.166Z,101468.55
2018-05-31T18:08:15.711Z,101467.09
2018-05-31T18:10:44.171Z,101469.20
2018-05-31T18:13:11.742Z,101479.25
2018-05-31T18:15:39.698Z,101469.12
2018-05-31T18:18:07.230Z,101474.79
2018-05-31T18:20:35.311Z,101471.34
2018-05-31T18:23:03.639Z,101470.97
2018-05-31T18:25:31.177Z,101471.27
2018-05-31T18:27:59.300Z,101468.41
2018-05-31T18:30:26.860Z,101469.53
2018-05-31T18:32:54.483Z,101462.05
2018-05-31T18:35:22.058Z,101464.09
2018-05-31T18:37:49.746Z,101467.37
2018-05-31T18:40:17.867Z,101465.66
2018-05-31T18:42:45.441Z,101476.74
2018-05-31T18:45:13.043Z,101478.14
2018-05-31T18:47:40.648Z,101484.05
2018-05-31T18:50:08.267Z,101485.86
2018-05-31T18:52:35.825Z,101488.61
2018-05-31T18:55:03.830Z,101486.24
2018-05-31T18:57:31.421Z,101488.47
2018-05-31T18:59:59.035Z,101482.09
2018-05-31T19:02:27.440Z,101487.81
2018-05-31T19:04:55.904Z,101491.16
2018-05-31T19:07:26.310Z,101500.08
2018-05-31T19:09:54.648Z,101496.23
2018-05-31T19:12:27.707Z,101502.02
2018-05-31T19:14:55.861Z,101495.52
2018-05-31T19:17:24.444Z,101489.56
2018-05-31T19:19:55.978Z,101491.52
2018-05-31T19:22:23.572Z,101500.16
2018-05-31T19:24:57.835Z,101507.44
2018-05-31T19:27:25.409Z,101510.28
2018-05-31T19:30:08.638Z,101508.31
2018-05-31T19:32:36.224Z,101510.42
2018-05-31T19:35:03.884Z,101511.66
2018-05-31T19:37:31.490Z,101509.55
2018-05-31T19:39:59.678Z,101512.88
2018-05-31T19:42:32.784Z,101507.27
2018-05-31T19:45:00.357Z,101512.97
2018-05-31T19:47:28.001Z,101510.90
2018-05-31T19:49:55.573Z,101499.90
2018-05-31T19:52:28.912Z,101506.82
2018-05-31T19:54:56.838Z,101506.77
2018-05-31T19:57:25.552Z,101510.41
2018-05-31T19:59:59.367Z,101509.77
2018-05-31T20:02:33.311Z,101513.12
2018-05-31T20:05:01.620Z,101516.13
2018-05-31T20:07:31.023Z,101508.52
2018-05-31T20:09:59.496Z,101508.53
2018-05-31T20:12:27.124Z,101510.23
2018-05-31T20:14:55.721Z,101515.79
2018-05-31T20:17:26.348Z,101515.27
2018-05-31T20:19:54.106Z,101519.45
2018-05-31T20:22:21.750Z,101510.25
2018-05-31T20:24:50.518Z,101516.30
2018-05-31T20:27:18.208Z,101508.81
2018-05-31T20:29:48.927Z,101507.70
2018-05-31T20:32:18.307Z,101507.30
2018-05-31T20:34:49.646Z,101510.50
2018-05-31T20:37:17.460Z,101503.10
2018-05-31T20:39:46.504Z,101509.20
2018-05-31T20:42:14.195Z,101503.19
2018-05-31T20:44:41.844Z,101504.72
2018-05-31T20:47:09.730Z,101502.78
2018-05-31T20:49:37.378Z,101507.02
2018-05-31T20:52:05.136Z,101502.68
2018-05-31T20:54:33.252Z,101501.48
2018-05-31T20:57:01.046Z,101496.45
2018-05-31T20:59:28.946Z,101498.57
2018-05-31T21:01:56.648Z,101506.22
2018-05-31T21:04:24.902Z,101497.95
2018-05-31T21:06:53.322Z,101497.15
2018-05-31T21:09:21.721Z,101499.34
2018-05-31T21:11:49.570Z,101497.06
2018-05-31T21:14:20.688Z,101501.48
2018-05-31T21:16:49.781Z,101508.27
2018-05-31T21:19:19.047Z,101507.03
2018-05-31T21:21:48.899Z,101511.01
2018-05-31T21:24:17.500Z,101513.81
2018-05-31T21:26:45.456Z,101514.47
2018-05-31T21:29:14.426Z,101513.11
2018-05-31T21:31:42.062Z,101511.48
2018-05-31T21:34:09.836Z,101516.66
2018-05-31T21:36:37.863Z,101518.84
2018-05-31T21:39:06.483Z,101517.41
2018-05-31T21:41:35.054Z,101518.95
2018-05-31T21:44:02.619Z,101519.91
2018-05-31T21:46:30.263Z,101522.17
2018-05-31T21:48:57.897Z,101518.34
2018-05-31T21:51:25.536Z,101524.62
2018-05-31T21:53:53.374Z,101526.08
2018-05-31T21:56:21.225Z,101535.80
2018-05-31T21:58:49.055Z,101529.56
2018-05-31T22:01:18.943Z,101531.84
2018-05-31T22:03:47.568Z,101533.77
2018-05-31T22:06:16.726Z,101532.11
2018-05-31T22:08:44.309Z,101528.03
2018-05-31T22:11:12.574Z,101520.55
2018-05-31T22:13:40.229Z,101513.17
2018-05-31T22:16:08.541Z,101513.75
2018-05-31T22:18:36.850Z,101518.61
2018-05-31T22:21:05.289Z,101512.86
2018-05-31T22:23:34.609Z,101515.44
2018-05-31T22:26:02.150Z,101515.30
2018-05-31T22:28:30.297Z,101512.33
2018-05-31T22:30:57.861Z,101512.48
2018-05-31T22:33:25.418Z,101510.27
2018-05-31T22:35:53.261Z,101499.45
2018-05-31T22:38:20.810Z,101506.38
2018-05-31T22:40:49.402Z,101498.16
2018-05-31T22:43:17.680Z,101502.77
2018-05-31T22:45:46.424Z,101496.11
2018-05-31T22:48:14.053Z,101500.72
2018-05-31T22:50:41.596Z,101495.53
2018-05-31T22:53:10.066Z,101491.98
2018-05-31T22:55:37.618Z,101497.10
2018-05-31T22:58:05.189Z,101500.78
2018-05-31T23:00:32.797Z,101496.91
2018-05-31T23:03:01.453Z,101497.83
2018-05-31T23:05:29.994Z,101496.51
2018-05-31T23:07:59.242Z,101495.34
2018-05-31T23:10:27.416Z,101486.70
2018-05-31T23:12:55.008Z,101489.44
2018-05-31T23:15:23.293Z,101488.84
2018-05-31T23:17:50.940Z,101486.82
2018-05-31T23:20:19.217Z,101486.48
2018-05-31T23:22:48.441Z,101485.36
2018-05-31T23:25:17.125Z,101479.11
2018-05-31T23:27:45.765Z,101474.66
2018-05-31T23:30:13.345Z,101471.69
2018-05-31T23:32:40.939Z,101461.00
2018-05-31T23:35:08.598Z,101469.75
2018-05-31T23:37:36.179Z,101464.84
2018-05-31T23:40:04.552Z,101451.88
2018-05-31T23:42:32.112Z,101452.38
2018-05-31T23:44:59.670Z,101455.39
2018-05-31T23:47:27.244Z,101447.23
2018-05-31T23:49:54.948Z,101450.56
2018-05-31T23:52:22.767Z,101443.05
2018-05-31T23:54:50.347Z,101445.22
2018-05-31T23:57:17.955Z,101449.50
2018-05-31T23:59:45.706Z,101448.30
